createdAt,value
2022-08-31T00:01:28.173Z,3.97
2022-08-31T00:04:32.393Z,4.23
2022-08-31T00:07:36.530Z,4.80
2022-08-31T00:10:43.226Z,6.43
2022-08-31T00:13:47.711Z,4.60
2022-08-31T00:16:51.846Z,4.43
2022-08-31T00:22:58.521Z,4.73
2022-08-31T00:26:01.155Z,6.23
2022-08-31T00:29:04.795Z,7.10
2022-08-31T00:32:07.645Z,6.57
2022-08-31T00:35:10.558Z,5.95
2022-08-31T00:38:17.661Z,5.20
2022-08-31T00:41:22.173Z,7.90
2022-08-31T00:44:25.023Z,6.07
2022-08-31T00:47:27.962Z,7.60
2022-08-31T00:50:30.652Z,13.10
2022-08-31T00:53:34.749Z,9.95
2022-08-31T00:56:37.917Z,11.67
2022-08-31T01:02:43.794Z,12.13
2022-08-31T01:05:47.098Z,10.38
2022-08-31T01:11:54.139Z,29.42
2022-08-31T01:14:57.434Z,15.57
2022-08-31T01:18:02.370Z,13.73
2022-08-31T01:21:14.314Z,10.97
2022-08-31T01:24:18.904Z,14.17
2022-08-31T01:27:25.904Z,15.00
2022-08-31T01:30:28.471Z,13.27
2022-08-31T01:33:31.411Z,13.23
2022-08-31T01:36:35.533Z,14.20
2022-08-31T01:39:39.564Z,18.80
2022-08-31T01:42:42.194Z,14.33
2022-08-31T01:45:45.324Z,11.75
2022-08-31T01:48:49.100Z,15.13
2022-08-31T01:51:53.609Z,15.53
2022-08-31T01:54:57.991Z,21.43
2022-08-31T01:58:01.506Z,11.47
2022-08-31T02:01:04.864Z,14.50
2022-08-31T02:04:29.948Z,9.63
2022-08-31T02:07:33.003Z,11.60
2022-08-31T02:10:37.534Z,12.63
2022-08-31T02:13:40.337Z,10.47
2022-08-31T02:16:43.096Z,11.43
2022-08-31T02:19:45.895Z,10.82
2022-08-31T02:22:48.706Z,10.27
2022-08-31T02:25:52.720Z,11.35
2022-08-31T02:28:55.598Z,15.77
2022-08-31T02:31:58.658Z,17.52
2022-08-31T02:35:01.387Z,13.85
2022-08-31T02:38:04.074Z,15.00
2022-08-31T02:41:08.960Z,9.63
2022-08-31T02:44:11.664Z,12.00
2022-08-31T02:47:14.299Z,14.93
2022-08-31T02:50:16.897Z,11.65
2022-08-31T02:53:21.760Z,11.18
2022-08-31T02:56:25.911Z,15.03
2022-08-31T02:59:28.648Z,12.80
2022-08-31T03:02:31.770Z,17.40
2022-08-31T03:05:35.056Z,12.17
2022-08-31T03:08:39.535Z,11.18
2022-08-31T03:11:43.696Z,14.87
2022-08-31T03:14:46.392Z,12.87
2022-08-31T03:17:49.206Z,11.45
2022-08-31T03:20:51.951Z,15.55
2022-08-31T03:23:54.468Z,13.32
2022-08-31T03:26:58.653Z,12.73
2022-08-31T03:30:01.332Z,10.17
2022-08-31T03:33:04.191Z,11.05
2022-08-31T03:36:08.136Z,13.20
2022-08-31T03:39:10.853Z,12.83
2022-08-31T03:42:14.862Z,12.45
2022-08-31T03:45:18.217Z,14.30
2022-08-31T03:51:23.643Z,11.07
2022-08-31T03:54:26.488Z,14.10
2022-08-31T03:57:30.585Z,12.27
2022-08-31T04:00:33.960Z,12.63
2022-08-31T04:06:40.792Z,12.73
2022-08-31T04:09:43.565Z,12.30
2022-08-31T04:12:47.586Z,13.27
2022-08-31T04:15:50.231Z,13.90
2022-08-31T04:18:56.416Z,12.68
2022-08-31T04:21:59.141Z,12.23
2022-08-31T04:25:01.823Z,14.13
2022-08-31T04:28:06.168Z,10.73
2022-08-31T04:31:09.266Z,11.57
2022-08-31T04:34:12.054Z,12.23
2022-08-31T04:37:14.888Z,14.38
2022-08-31T04:40:19.791Z,12.82
2022-08-31T04:43:25.110Z,12.53
2022-08-31T04:46:28.557Z,16.37
2022-08-31T04:49:31.488Z,13.20
2022-08-31T04:52:34.094Z,12.10
2022-08-31T04:55:40.890Z,10.82
2022-08-31T04:58:47.665Z,12.27
2022-08-31T05:01:50.294Z,11.00
2022-08-31T05:04:53.138Z,12.00
2022-08-31T05:07:55.895Z,10.32
2022-08-31T05:10:58.607Z,11.65
2022-08-31T05:14:04.009Z,12.63
2022-08-31T05:17:08.032Z,16.03
2022-08-31T05:20:17.847Z,9.87
2022-08-31T05:23:20.626Z,13.57
2022-08-31T05:26:26.776Z,9.85
2022-08-31T05:29:30.929Z,12.27
2022-08-31T05:32:34.129Z,11.63
2022-08-31T05:35:37.554Z,12.23
2022-08-31T05:38:41.027Z,13.27
2022-08-31T05:41:47.298Z,13.70
2022-08-31T05:44:51.307Z,12.80
2022-08-31T05:47:54.009Z,14.47
2022-08-31T05:50:56.552Z,12.98
2022-08-31T05:54:00.578Z,14.83
2022-08-31T05:57:03.832Z,12.07
2022-08-31T06:00:09.581Z,12.75
2022-08-31T06:03:12.625Z,10.33
2022-08-31T06:06:16.200Z,12.05
2022-08-31T06:09:18.920Z,9.97
2022-08-31T06:12:25.576Z,10.15
2022-08-31T06:15:29.550Z,10.63
2022-08-31T06:18:32.124Z,10.90
2022-08-31T06:21:36.958Z,11.93
2022-08-31T06:24:39.679Z,12.57
2022-08-31T06:27:44.122Z,17.42
2022-08-31T06:30:55.234Z,10.43
2022-08-31T06:33:59.611Z,11.60
2022-08-31T06:37:02.220Z,11.27
2022-08-31T06:40:05.342Z,16.83
2022-08-31T06:43:08.409Z,11.00
2022-08-31T06:46:14.127Z,12.48
2022-08-31T06:49:17.064Z,11.80
2022-08-31T06:52:21.056Z,10.82
2022-08-31T06:55:24.442Z,11.87
2022-08-31T06:58:27.090Z,12.27
2022-08-31T07:01:35.289Z,11.30
2022-08-31T07:04:40.021Z,9.17
2022-08-31T07:07:42.631Z,9.77
2022-08-31T07:10:45.347Z,11.10
2022-08-31T07:13:48.530Z,9.07
2022-08-31T07:16:54.307Z,10.15
2022-08-31T07:19:56.895Z,8.50
2022-08-31T07:22:59.635Z,9.90
2022-08-31T07:26:05.277Z,9.27
2022-08-31T07:29:10.062Z,7.53
2022-08-31T07:32:15.690Z,11.77
2022-08-31T07:35:18.708Z,8.73
2022-08-31T07:38:39.151Z,8.48
2022-08-31T07:41:59.522Z,7.53
2022-08-31T07:45:05.439Z,7.53
2022-08-31T07:48:09.660Z,8.77
2022-08-31T07:51:15.096Z,7.73
2022-08-31T07:54:20.552Z,7.73
2022-08-31T07:57:25.833Z,6.87
2022-08-31T08:00:33.073Z,11.63
2022-08-31T08:03:37.014Z,6.90
2022-08-31T08:06:40.231Z,7.10
2022-08-31T08:09:42.924Z,8.43
2022-08-31T08:12:48.428Z,10.75
2022-08-31T08:15:53.988Z,12.33
2022-08-31T08:18:58.093Z,11.30
2022-08-31T08:22:02.825Z,7.20
2022-08-31T08:25:07.003Z,9.47
2022-08-31T08:28:29.020Z,14.47
2022-08-31T08:34:43.379Z,10.87
2022-08-31T08:37:58.633Z,12.30
2022-08-31T08:41:06.934Z,9.17
2022-08-31T08:44:11.350Z,9.83
2022-08-31T08:47:23.914Z,7.77
2022-08-31T08:50:29.734Z,9.27
2022-08-31T08:53:33.220Z,9.27
2022-08-31T08:56:47.577Z,9.03
2022-08-31T08:59:51.017Z,11.23
2022-08-31T09:02:58.318Z,6.83
2022-08-31T09:06:10.493Z,11.20
2022-08-31T09:09:30.690Z,7.00
2022-08-31T09:12:42.111Z,7.73
2022-08-31T09:15:53.009Z,6.47
2022-08-31T09:18:58.073Z,5.80
2022-08-31T09:22:03.098Z,7.60
2022-08-31T09:25:06.407Z,14.37
2022-08-31T09:28:11.178Z,8.10
2022-08-31T09:31:32.662Z,12.00
2022-08-31T09:34:38.564Z,5.97
2022-08-31T09:37:46.089Z,6.97
2022-08-31T09:40:50.558Z,6.50
2022-08-31T09:43:55.291Z,8.47
2022-08-31T09:47:01.949Z,5.73
2022-08-31T09:50:08.337Z,15.67
2022-08-31T09:53:34.781Z,10.47
2022-08-31T09:56:55.528Z,9.53
2022-08-31T09:59:58.398Z,7.43
2022-08-31T10:03:08.864Z,11.10
2022-08-31T10:06:26.348Z,7.23
2022-08-31T10:09:36.101Z,9.00
2022-08-31T10:12:42.295Z,7.40
2022-08-31T10:15:50.799Z,9.23
2022-08-31T10:18:59.239Z,8.07
2022-08-31T10:22:04.693Z,7.53
2022-08-31T10:25:15.321Z,6.70
2022-08-31T10:28:21.685Z,9.23
2022-08-31T10:31:30.063Z,7.40
2022-08-31T10:34:53.188Z,6.07
2022-08-31T10:37:59.938Z,7.25
2022-08-31T10:41:10.821Z,6.20
2022-08-31T10:44:18.213Z,8.77
2022-08-31T10:47:34.249Z,6.47
2022-08-31T10:50:45.300Z,8.80
2022-08-31T10:53:55.400Z,8.07
2022-08-31T10:57:07.323Z,9.43
2022-08-31T11:00:34.769Z,6.47
2022-08-31T11:03:57.431Z,10.30
2022-08-31T11:07:03.760Z,9.33
2022-08-31T11:10:20.061Z,12.37
2022-08-31T11:13:39.476Z,7.87
2022-08-31T11:16:55.098Z,11.97
2022-08-31T11:20:12.182Z,9.70
2022-08-31T11:23:27.888Z,8.23
2022-08-31T11:26:45.131Z,10.37
2022-08-31T11:29:58.148Z,7.90
2022-08-31T11:33:07.622Z,5.65
2022-08-31T11:36:10.296Z,11.93
2022-08-31T11:39:40.197Z,9.10
2022-08-31T11:43:01.107Z,6.40
2022-08-31T11:46:37.869Z,7.80
2022-08-31T11:49:48.486Z,9.23
2022-08-31T11:52:53.414Z,8.83
2022-08-31T11:56:03.915Z,9.60
2022-08-31T11:59:26.535Z,9.87
2022-08-31T12:02:45.451Z,9.17
2022-08-31T12:05:58.013Z,6.97
2022-08-31T12:09:15.594Z,12.75
2022-08-31T12:12:29.294Z,9.20
2022-08-31T12:15:46.809Z,12.47
2022-08-31T12:19:01.337Z,12.63
2022-08-31T12:22:34.955Z,8.23
2022-08-31T12:25:44.019Z,12.65
2022-08-31T12:29:01.920Z,8.20
2022-08-31T12:32:11.477Z,8.57
2022-08-31T12:35:17.687Z,10.10
2022-08-31T12:38:23.625Z,12.37
2022-08-31T12:41:26.349Z,7.63
2022-08-31T12:44:32.917Z,9.48
2022-08-31T12:47:43.075Z,7.93
2022-08-31T12:50:49.911Z,10.83
2022-08-31T12:54:06.086Z,8.80
2022-08-31T12:57:13.156Z,10.10
2022-08-31T13:00:25.872Z,11.68
2022-08-31T13:03:30.721Z,10.43
2022-08-31T13:06:35.382Z,10.52
2022-08-31T13:09:40.638Z,8.38
2022-08-31T13:12:49.205Z,12.48
2022-08-31T13:15:53.066Z,10.95
2022-08-31T13:19:00.289Z,8.00
2022-08-31T13:22:06.095Z,9.65
2022-08-31T13:25:16.430Z,8.13
2022-08-31T13:28:26.228Z,7.18
2022-08-31T13:31:31.442Z,9.77
2022-08-31T13:34:39.334Z,10.20
2022-08-31T13:37:45.791Z,8.73
2022-08-31T13:40:52.465Z,10.30
2022-08-31T13:44:01.256Z,5.25
2022-08-31T13:47:13.012Z,7.15
2022-08-31T13:50:21.883Z,9.75
2022-08-31T13:53:39.479Z,9.70
2022-08-31T13:56:58.755Z,10.35
2022-08-31T14:00:27.333Z,8.50
2022-08-31T14:03:33.036Z,7.13
2022-08-31T14:06:38.054Z,5.78
2022-08-31T14:09:43.318Z,6.75
2022-08-31T14:12:50.530Z,8.40
2022-08-31T14:15:56.206Z,8.70
2022-08-31T14:18:59.757Z,7.35
2022-08-31T14:22:17.177Z,9.40
2022-08-31T14:25:22.163Z,8.85
2022-08-31T14:28:37.218Z,10.07
2022-08-31T14:31:45.247Z,4.32
2022-08-31T14:34:49.110Z,9.40
2022-08-31T14:37:51.712Z,5.22
2022-08-31T14:40:54.432Z,6.97
2022-08-31T14:44:10.010Z,6.55
2022-08-31T14:47:12.782Z,8.40
2022-08-31T14:50:18.751Z,4.47
2022-08-31T14:53:21.992Z,6.78
2022-08-31T14:56:33.149Z,6.38
2022-08-31T14:59:39.641Z,5.32
2022-08-31T15:02:43.738Z,6.47
2022-08-31T15:05:48.905Z,5.55
2022-08-31T15:08:52.035Z,8.35
2022-08-31T15:11:58.002Z,7.97
2022-08-31T15:15:01.890Z,4.45
2022-08-31T15:18:04.907Z,5.57
2022-08-31T15:21:07.612Z,4.85
2022-08-31T15:24:10.722Z,7.97
2022-08-31T15:27:15.343Z,4.82
2022-08-31T15:30:20.145Z,5.15
2022-08-31T15:33:22.871Z,4.45
2022-08-31T15:36:27.089Z,7.10
2022-08-31T15:39:32.566Z,4.70
2022-08-31T15:42:38.312Z,5.77
2022-08-31T15:45:42.602Z,4.40
2022-08-31T15:48:45.877Z,4.47
2022-08-31T15:51:49.153Z,3.50
2022-08-31T15:54:52.158Z,8.83
2022-08-31T15:57:55.731Z,5.95
2022-08-31T16:00:59.810Z,5.73
2022-08-31T16:04:04.938Z,6.73
2022-08-31T16:07:09.471Z,4.50
2022-08-31T16:10:15.636Z,3.67
2022-08-31T16:13:22.002Z,6.97
2022-08-31T16:16:27.450Z,4.97
2022-08-31T16:19:36.169Z,6.30
2022-08-31T16:22:39.146Z,7.20
2022-08-31T16:25:48.068Z,4.15
2022-08-31T16:28:51.594Z,5.67
2022-08-31T16:31:56.406Z,4.13
2022-08-31T16:35:00.001Z,8.05
2022-08-31T16:38:02.714Z,6.00
2022-08-31T16:41:06.429Z,6.13
2022-08-31T16:44:19.703Z,6.95
2022-08-31T16:47:24.415Z,5.78
2022-08-31T16:50:26.094Z,6.85
2022-08-31T16:53:28.907Z,6.35
2022-08-31T16:59:36.898Z,5.15
2022-08-31T17:02:41.114Z,6.77
2022-08-31T17:05:44.013Z,5.07
2022-08-31T17:08:47.156Z,6.68
2022-08-31T17:11:55.527Z,4.73
2022-08-31T17:15:00.519Z,4.83
2022-08-31T17:18:04.701Z,7.23
2022-08-31T17:21:07.726Z,4.90
2022-08-31T17:24:14.915Z,4.63
2022-08-31T17:27:20.579Z,6.90
2022-08-31T17:30:23.261Z,4.03
2022-08-31T17:33:27.391Z,4.53
2022-08-31T17:36:37.377Z,5.20
2022-08-31T17:39:40.828Z,7.83
2022-08-31T17:48:51.332Z,3.53
2022-08-31T17:51:55.532Z,4.03
2022-08-31T17:55:00.211Z,6.00
2022-08-31T17:58:02.925Z,13.83
2022-08-31T18:01:07.286Z,5.72
2022-08-31T18:04:12.379Z,7.97
2022-08-31T18:07:15.373Z,5.07
2022-08-31T18:10:19.060Z,7.18
2022-08-31T18:13:21.895Z,7.80
2022-08-31T18:16:27.409Z,7.50
2022-08-31T18:19:33.369Z,8.43
2022-08-31T18:22:35.989Z,6.40
2022-08-31T18:25:40.961Z,5.28
2022-08-31T18:28:44.125Z,5.90
2022-08-31T18:31:50.133Z,5.95
2022-08-31T18:34:57.383Z,7.53
2022-08-31T18:38:00.437Z,8.33
2022-08-31T18:41:23.426Z,11.18
2022-08-31T18:44:43.877Z,8.70
2022-08-31T18:48:07.235Z,7.03
2022-08-31T18:51:13.635Z,7.57
2022-08-31T18:54:19.258Z,8.03
2022-08-31T18:57:24.538Z,7.00
2022-08-31T19:00:28.971Z,10.10
2022-08-31T19:03:31.952Z,10.57
2022-08-31T19:06:36.225Z,9.40
2022-08-31T19:09:39.357Z,9.03
2022-08-31T19:12:43.555Z,10.98
2022-08-31T19:15:47.029Z,10.63
2022-08-31T19:18:50.607Z,9.40
2022-08-31T19:21:55.468Z,15.40
2022-08-31T19:24:58.241Z,10.27
2022-08-31T19:28:02.028Z,11.30
2022-08-31T19:31:06.561Z,11.03
2022-08-31T19:34:10.223Z,10.90
2022-08-31T19:37:16.040Z,15.40
2022-08-31T19:40:19.406Z,12.93
2022-08-31T19:46:52.509Z,14.50
2022-08-31T19:49:56.075Z,12.17
2022-08-31T19:56:06.504Z,10.60
2022-08-31T19:59:10.233Z,13.97
2022-08-31T20:02:14.281Z,13.80
2022-08-31T20:05:17.616Z,15.50
2022-08-31T20:11:30.431Z,13.87
2022-08-31T20:14:33.356Z,14.27
2022-08-31T20:17:36.229Z,16.73
2022-08-31T20:20:43.540Z,15.75
2022-08-31T20:23:49.944Z,17.93
2022-08-31T20:26:57.045Z,13.20
2022-08-31T20:30:00.435Z,14.87
2022-08-31T20:36:18.818Z,17.33
2022-08-31T20:39:25.485Z,17.00
2022-08-31T20:42:28.351Z,15.30
2022-08-31T20:45:31.118Z,18.13
2022-08-31T20:48:59.789Z,15.45
2022-08-31T20:52:02.854Z,16.63
2022-08-31T20:55:08.423Z,17.33
2022-08-31T20:58:11.432Z,16.90
2022-08-31T21:01:15.983Z,17.83
2022-08-31T21:04:19.286Z,17.17
2022-08-31T21:07:23.284Z,16.63
2022-08-31T21:10:37.067Z,17.90
2022-08-31T21:13:40.774Z,16.97
2022-08-31T21:16:43.902Z,20.15
2022-08-31T21:19:46.726Z,17.92
2022-08-31T21:22:49.295Z,19.40
2022-08-31T21:25:55.211Z,18.83
2022-08-31T21:28:58.011Z,24.17
2022-08-31T21:32:03.837Z,21.67
2022-08-31T21:35:07.371Z,19.33
2022-08-31T21:41:17.980Z,23.57
2022-08-31T21:44:21.746Z,25.73
2022-08-31T21:47:24.495Z,19.57
2022-08-31T21:50:28.432Z,21.83
2022-08-31T21:53:31.124Z,28.13
2022-08-31T21:56:39.289Z,25.25
2022-08-31T21:59:42.959Z,22.77
2022-08-31T22:02:46.901Z,27.20
2022-08-31T22:05:50.316Z,22.73
2022-08-31T22:08:55.203Z,23.55
2022-08-31T22:12:03.075Z,24.10
2022-08-31T22:15:10.269Z,23.03
2022-08-31T22:21:36.707Z,26.53
2022-08-31T22:24:39.523Z,24.77
2022-08-31T22:27:46.652Z,27.43
2022-08-31T22:30:49.534Z,28.97
2022-08-31T22:33:52.903Z,25.75
2022-08-31T22:36:56.619Z,24.42
2022-08-31T22:39:59.286Z,29.67
2022-08-31T22:43:05.735Z,28.38
2022-08-31T22:46:11.605Z,24.10
2022-08-31T22:49:14.822Z,25.67
2022-08-31T22:52:17.564Z,24.45
2022-08-31T22:55:20.269Z,31.05
2022-08-31T22:58:24.282Z,28.50
2022-08-31T23:01:29.341Z,27.33
2022-08-31T23:04:34.173Z,24.33
2022-08-31T23:07:36.919Z,27.60
2022-08-31T23:10:40.265Z,22.02
2022-08-31T23:16:59.194Z,24.30
2022-08-31T23:20:03.285Z,23.87
2022-08-31T23:23:06.197Z,27.63
2022-08-31T23:26:10.714Z,18.95
2022-08-31T23:29:18.047Z,21.50
2022-08-31T23:32:23.363Z,25.77
2022-08-31T23:35:28.325Z,21.47
2022-08-31T23:38:32.513Z,19.30
2022-08-31T23:41:39.038Z,17.10
2022-08-31T23:44:46.350Z,18.20
2022-08-31T23:47:50.062Z,19.13
2022-08-31T23:50:53.049Z,20.43
2022-08-31T23:53:56.957Z,16.95
2022-08-31T23:57:00.035Z,20.57
